Terminal Aerodrome Forecast
Issued by NWS Atlanta, GA

Home | Current Version | Previous Version | Text Only | Print | Product List | Glossary On
Versions: 1 2 3 4 5 6 7 8 9 10 11 12 13 14 15 16 17 18 19 20 21 22
000
FTUS42 KFFC 021404 AAB
TAFMCN
TAF AMD
KMCN 021404Z 0214/0312 10005KT P6SM SCT012
      TEMPO 0214/0216 5SM BR BKN006
     FM021600 07005KT P6SM SCT030
     FM030200 00000KT P6SM FEW250=

USA.gov is the U.S. government's official web portal to all federal, state and local government web resources and services.